Time;durP1;ratioP1;P1;durP2;ratioP2;P2;SDS_P1;SDS_P2;PMS_P1;PMS_P2;Temp;Humidity;BMP_temperature;BMP_pressure;BME280_temperature;BME280_humidity;BME280_pressure;Samples;Min_cycle;Max_cycle;Signal;HPM_P1;HPM_P2
2024/01/07 00:00:27;;;;;;;8.30;5.30;;;;;;;-2.67;72.32;99251.36;107335;1254;73866;-39
2024/01/07 00:02:55;;;;;;;8.30;5.80;;;;;;;-2.70;72.10;99245.98;107339;1254;67639;-39
2024/01/07 00:05:23;;;;;;;9.20;5.80;;;;;;;-2.76;72.01;99251.16;107439;1253;71409;-39
2024/01/07 00:07:51;;;;;;;9.80;5.10;;;;;;;-2.85;72.09;99253.70;107443;1254;60460;-39
2024/01/07 00:10:19;;;;;;;8.60;5.60;;;;;;;-2.86;72.18;99252.06;107426;1255;59738;-39
2024/01/07 00:12:48;;;;;;;9.20;5.70;;;;;;;-2.83;72.13;99250.98;107433;1254;73875;-38
2024/01/07 00:15:15;;;;;;;10.10;5.40;;;;;;;-2.85;71.99;99250.00;107446;1254;67710;-38
2024/01/07 00:17:43;;;;;;;8.50;5.80;;;;;;;-2.87;72.07;99250.54;107415;1255;72948;-39
2024/01/07 00:20:11;;;;;;;9.40;6.20;;;;;;;-2.91;72.00;99248.44;107458;1260;60520;-39
2024/01/07 00:22:38;;;;;;;9.20;5.70;;;;;;;-2.98;72.24;99248.27;107511;1254;60335;-39
2024/01/07 00:25:06;;;;;;;10.00;6.10;;;;;;;-3.00;72.04;99242.55;107470;1259;73856;-39
2024/01/07 00:27:34;;;;;;;7.60;5.30;;;;;;;-2.94;71.91;99236.03;107522;1254;66561;-38
2024/01/07 00:30:03;;;;;;;9.20;5.90;;;;;;;-2.91;71.79;99241.92;107307;1254;72645;-38
2024/01/07 00:32:30;;;;;;;8.50;5.40;;;;;;;-2.93;71.61;99242.77;107207;1256;60444;-39
2024/01/07 00:34:58;;;;;;;9.00;5.40;;;;;;;-2.97;71.45;99242.79;107351;1260;60520;-39
2024/01/07 00:37:26;;;;;;;9.10;5.60;;;;;;;-3.03;71.32;99255.55;107338;1254;73855;-39
2024/01/07 00:39:53;;;;;;;7.90;5.50;;;;;;;-3.10;71.17;99264.97;107396;1254;67571;-39
2024/01/07 00:42:21;;;;;;;8.10;5.30;;;;;;;-3.11;71.28;99269.21;105836;1257;1003782;-39
2024/01/07 00:44:49;;;;;;;7.20;5.00;;;;;;;-3.07;70.91;99259.66;107372;1254;59566;-39
2024/01/07 00:47:17;;;;;;;7.40;5.10;;;;;;;-3.09;70.77;99268.47;107528;1255;60425;-39
2024/01/07 00:49:44;;;;;;;7.00;5.30;;;;;;;-3.13;70.62;99273.63;107566;1255;72554;-39
2024/01/07 00:52:12;;;;;;;7.60;5.30;;;;;;;-3.17;70.28;99274.06;107626;1254;67306;-39
2024/01/07 00:54:39;;;;;;;8.50;5.60;;;;;;;-3.24;70.01;99275.73;107557;1254;72639;-40
2024/01/07 00:57:07;;;;;;;8.90;5.70;;;;;;;-3.26;70.29;99280.68;107459;1254;60341;-40
2024/01/07 00:59:35;;;;;;;7.00;4.90;;;;;;;-3.22;70.61;99284.80;107430;1254;60440;-38
2024/01/07 01:02:02;;;;;;;8.40;5.20;;;;;;;-3.15;70.18;99277.02;107619;1253;73840;-40
2024/01/07 01:04:30;;;;;;;8.60;4.90;;;;;;;-3.16;69.98;99275.23;107569;1254;66274;-39
2024/01/07 01:06:57;;;;;;;9.00;5.40;;;;;;;-3.23;69.72;99276.27;107476;1254;72709;-39
2024/01/07 01:09:28;;;;;;;9.60;5.60;;;;;;;-3.30;69.98;99274.92;106774;1254;1016281;-39
2024/01/07 01:11:55;;;;;;;9.10;6.10;;;;;;;-3.32;69.91;99281.28;107504;1253;59234;-39
2024/01/07 01:14:23;;;;;;;9.50;5.90;;;;;;;-3.34;70.04;99279.80;107465;1254;73802;-39
2024/01/07 01:16:50;;;;;;;8.10;5.10;;;;;;;-3.34;70.09;99278.96;107464;1254;67562;-39
2024/01/07 01:19:18;;;;;;;8.50;5.40;;;;;;;-3.30;69.83;99283.08;107528;1253;72332;-39
2024/01/07 01:21:46;;;;;;;9.90;5.40;;;;;;;-3.32;69.82;99288.12;107448;1254;60332;-39
2024/01/07 01:24:13;;;;;;;8.10;5.30;;;;;;;-3.37;69.82;99286.02;107306;1253;59718;-39
2024/01/07 01:26:41;;;;;;;8.00;5.30;;;;;;;-3.42;69.95;99278.58;107650;1253;73827;-39
2024/01/07 01:29:08;;;;;;;9.60;5.90;;;;;;;-3.43;70.44;99277.71;107586;1256;66466;-39
2024/01/07 01:31:36;;;;;;;8.40;5.10;;;;;;;-3.45;70.67;99275.65;106850;1254;1002932;-39
2024/01/07 01:34:04;;;;;;;8.10;5.40;;;;;;;-3.38;70.75;99276.15;107628;1253;60288;-39
2024/01/07 01:36:31;;;;;;;7.40;5.40;;;;;;;-3.33;70.81;99274.71;107647;1254;60464;-39
2024/01/07 01:38:59;;;;;;;9.20;5.90;;;;;;;-3.34;70.77;99274.17;107639;1254;73918;-39
2024/01/07 01:41:28;;;;;;;8.60;6.00;;;;;;;-3.36;70.44;99273.50;107476;1254;66602;-39
2024/01/07 01:44:00;;;;;;;8.80;6.00;;;;;;;-3.36;70.76;99278.17;107509;1254;72338;-39
2024/01/07 01:46:28;;;;;;;9.80;6.30;;;;;;;-3.38;70.53;99281.58;107640;1253;60460;-39
2024/01/07 01:48:56;;;;;;;9.40;6.30;;;;;;;-3.37;70.75;99286.55;107717;1254;61104;-39
2024/01/07 01:51:23;;;;;;;11.20;6.50;;;;;;;-3.35;70.50;99290.29;107613;1254;73844;-39
2024/01/07 01:53:52;;;;;;;9.00;6.20;;;;;;;-3.37;70.42;99291.52;107587;1254;66291;-39
2024/01/07 01:56:20;;;;;;;10.50;6.00;;;;;;;-3.40;70.67;99291.27;107370;1259;72669;-39
2024/01/07 01:58:48;;;;;;;9.80;6.20;;;;;;;-3.44;70.62;99299.82;107392;1252;60545;-39
2024/01/07 02:01:15;;;;;;;9.90;6.50;;;;;;;-3.49;70.69;99304.86;107375;1254;59238;-39
2024/01/07 02:03:43;;;;;;;9.10;6.10;;;;;;;-3.51;70.83;99305.61;107624;1254;72555;-39
2024/01/07 02:06:11;;;;;;;9.10;5.90;;;;;;;-3.51;70.67;99301.05;107613;1254;67522;-39
2024/01/07 02:08:40;;;;;;;9.00;6.10;;;;;;;-3.49;70.78;99301.80;107645;1254;73067;-39
2024/01/07 02:11:16;;;;;;;10.20;5.90;;;;;;;-3.51;70.52;99298.24;107395;1254;60524;-38
2024/01/07 02:13:43;;;;;;;9.90;6.20;;;;;;;-3.59;70.45;99296.04;107392;1254;59584;-39
2024/01/07 02:16:11;;;;;;;10.60;6.80;;;;;;;-3.65;70.53;99295.63;107576;1254;73601;-39
2024/01/07 02:18:42;;;;;;;8.90;5.70;;;;;;;-3.71;70.70;99298.77;107406;1254;67535;-39
2024/01/07 02:21:10;;;;;;;9.50;6.10;;;;;;;-3.77;71.03;99293.89;107609;1253;74908;-39
2024/01/07 02:23:37;;;;;;;11.00;6.30;;;;;;;-3.75;70.90;99293.38;107617;1254;60351;-39
2024/01/07 02:26:05;;;;;;;9.50;5.80;;;;;;;-3.75;71.05;99295.23;107483;1252;60407;-39
2024/01/07 02:28:33;;;;;;;10.90;6.40;;;;;;;-3.82;71.10;99293.96;107605;1254;73830;-39
2024/01/07 02:31:00;;;;;;;8.30;6.00;;;;;;;-3.87;71.16;99297.49;107457;1254;67595;-40
2024/01/07 02:33:29;;;;;;;9.20;5.90;;;;;;;-3.93;70.91;99298.05;107587;1254;71042;-38
2024/01/07 02:35:57;;;;;;;6.20;4.40;;;;;;;-3.94;71.15;99298.52;106834;1254;1003712;-39
2024/01/07 02:38:24;;;;;;;7.80;6.00;;;;;;;-3.86;71.01;99298.73;107605;1257;60476;-39
2024/01/07 02:40:52;;;;;;;11.30;5.70;;;;;;;-3.81;70.72;99295.85;107501;1253;73017;-39
2024/01/07 02:43:19;;;;;;;8.00;5.20;;;;;;;-3.84;71.02;99290.78;107613;1254;66427;-39
2024/01/07 02:45:47;;;;;;;10.40;6.10;;;;;;;-3.89;70.67;99292.73;107579;1253;72713;-39
2024/01/07 02:48:14;;;;;;;9.00;5.80;;;;;;;-3.95;70.67;99295.45;107302;1257;60447;-39
2024/01/07 02:50:43;;;;;;;9.00;6.40;;;;;;;-4.00;70.48;99288.56;107360;1254;60415;-39
2024/01/07 02:53:11;;;;;;;9.30;5.70;;;;;;;-4.04;70.86;99291.70;106842;1254;1014939;-39
2024/01/07 02:55:39;;;;;;;10.20;5.80;;;;;;;-4.00;70.96;99293.55;107605;1254;67557;-39
2024/01/07 02:58:07;;;;;;;11.30;5.90;;;;;;;-3.96;70.79;99297.77;107565;1255;70797;-39
2024/01/07 03:00:34;;;;;;;8.40;5.40;;;;;;;-3.99;70.79;99296.30;107477;1259;59550;-39
2024/01/07 03:03:02;;;;;;;10.00;6.20;;;;;;;-4.02;70.63;99299.58;107604;1254;60485;-39
2024/01/07 03:05:32;;;;;;;9.50;6.20;;;;;;;-4.04;71.00;99301.70;107606;1254;72581;-39
2024/01/07 03:08:00;;;;;;;11.30;6.20;;;;;;;-4.07;70.79;99302.59;106839;1257;1002996;-39
2024/01/07 03:10:27;;;;;;;9.50;6.10;;;;;;;-4.13;70.55;99305.35;107478;1254;72598;-38
2024/01/07 03:12:55;;;;;;;8.50;5.90;;;;;;;-4.15;70.63;99306.52;107451;1254;61713;-39
2024/01/07 03:15:23;;;;;;;11.30;6.00;;;;;;;-4.14;70.73;99306.25;107606;1253;59577;-39
2024/01/07 03:17:50;;;;;;;8.90;5.50;;;;;;;-4.17;70.75;99302.91;107628;1253;73730;-38
2024/01/07 03:20:18;;;;;;;9.70;5.60;;;;;;;-4.22;70.69;99307.00;107599;1256;66695;-39
2024/01/07 03:22:45;;;;;;;8.60;5.70;;;;;;;-4.27;70.52;99310.17;107566;1254;72677;-39
2024/01/07 03:25:15;;;;;;;9.60;5.80;;;;;;;-4.30;70.37;99320.59;107575;1254;60267;-39
2024/01/07 03:27:42;;;;;;;9.10;5.50;;;;;;;-4.33;70.51;99323.29;107603;1254;60309;-39
2024/01/07 03:30:11;;;;;;;8.60;5.60;;;;;;;-4.32;70.16;99322.45;107509;1254;73940;-38
2024/01/07 03:32:38;;;;;;;7.30;5.00;;;;;;;-4.34;70.23;99324.70;107640;1253;66807;-39
2024/01/07 03:35:08;;;;;;;8.40;5.30;;;;;;;-4.35;70.83;99325.34;107596;1254;72603;-38
2024/01/07 03:37:36;;;;;;;8.60;5.60;;;;;;;-4.33;70.60;99326.09;107577;1257;60162;-39
2024/01/07 03:40:08;;;;;;;10.60;5.60;;;;;;;-4.35;70.62;99328.52;107609;1254;60470;-39
2024/01/07 03:42:36;;;;;;;8.40;5.60;;;;;;;-4.37;70.56;99334.73;107493;1254;73889;-38
2024/01/07 03:45:05;;;;;;;8.20;5.30;;;;;;;-4.38;70.47;99339.31;107497;1254;67610;-39
2024/01/07 03:47:32;;;;;;;8.90;5.70;;;;;;;-4.35;70.50;99333.45;107606;1254;72458;-39
2024/01/07 03:50:00;;;;;;;9.50;5.90;;;;;;;-4.36;70.75;99332.17;107569;1254;60447;-39
2024/01/07 03:52:28;;;;;;;9.10;5.60;;;;;;;-4.34;70.52;99333.54;106881;1253;1003122;-39
2024/01/07 03:54:56;;;;;;;11.20;6.00;;;;;;;-4.37;70.38;99338.90;107597;1254;73858;-39
2024/01/07 03:57:24;;;;;;;8.60;6.00;;;;;;;-4.44;70.64;99338.56;107522;1254;66271;-39
2024/01/07 03:59:52;;;;;;;8.10;6.00;;;;;;;-4.49;70.78;99341.02;107487;1254;72468;-39
2024/01/07 04:02:19;;;;;;;8.60;5.60;;;;;;;-4.48;70.74;99340.88;107550;1257;61472;-39
2024/01/07 04:04:47;;;;;;;8.10;5.10;;;;;;;-4.42;70.62;99344.65;107500;1254;60523;-39
2024/01/07 04:07:14;;;;;;;8.10;5.70;;;;;;;-4.41;70.82;99348.04;107594;1254;72606;-39
2024/01/07 04:09:44;;;;;;;10.20;5.80;;;;;;;-4.42;70.76;99350.95;107516;1254;66589;-39
2024/01/07 04:12:11;;;;;;;9.90;6.10;;;;;;;-4.46;70.81;99351.78;106887;1254;1003134;-39
2024/01/07 04:14:39;;;;;;;12.20;6.10;;;;;;;-4.50;70.78;99359.39;107525;1254;60309;-39
2024/01/07 04:17:08;;;;;;;8.90;5.10;;;;;;;-4.59;70.29;99357.42;107599;1253;60456;-38
2024/01/07 04:19:38;;;;;;;14.00;5.70;;;;;;;-4.64;70.68;99363.52;107481;1254;74554;-39
2024/01/07 04:22:06;;;;;;;8.50;5.50;;;;;;;-4.61;70.66;99361.69;107531;1254;65617;-39
2024/01/07 04:24:34;;;;;;;9.50;5.80;;;;;;;-4.65;70.67;99359.35;107580;1254;72684;-39
2024/01/07 04:27:02;;;;;;;10.10;5.90;;;;;;;-4.68;70.84;99364.30;107379;1254;60450;-39
2024/01/07 04:29:29;;;;;;;8.40;5.30;;;;;;;-4.70;70.85;99374.25;107518;1254;60428;-39
2024/01/07 04:31:56;;;;;;;9.80;5.70;;;;;;;-4.69;70.88;99380.55;106732;1256;1003160;-39
2024/01/07 04:34:24;;;;;;;8.70;5.90;;;;;;;-4.70;70.18;99384.56;107530;1256;67596;-39
2024/01/07 04:36:52;;;;;;;9.00;5.70;;;;;;;-4.76;69.89;99383.86;107377;1254;72868;-38
2024/01/07 04:39:19;;;;;;;8.30;5.80;;;;;;;-4.79;70.00;99384.80;107532;1254;60290;-38
2024/01/07 04:41:47;;;;;;;9.20;5.70;;;;;;;-4.75;70.01;99379.05;107606;1254;60440;-38
2024/01/07 04:44:14;;;;;;;9.80;5.60;;;;;;;-4.78;69.52;99376.92;107598;1254;73806;-39
2024/01/07 04:46:42;;;;;;;8.10;5.40;;;;;;;-4.86;69.69;99377.30;107600;1253;66419;-38
2024/01/07 04:49:09;;;;;;;9.70;5.60;;;;;;;-4.92;69.77;99381.19;106710;1254;1002856;-38
2024/01/07 04:51:37;;;;;;;10.00;6.00;;;;;;;-4.97;69.81;99376.41;106837;1253;1003046;-38
2024/01/07 04:54:05;;;;;;;9.40;5.70;;;;;;;-5.05;69.75;99378.80;107603;1253;61212;-38
2024/01/07 04:56:33;;;;;;;9.40;5.40;;;;;;;-5.21;69.87;99366.63;107576;1254;73806;-38
2024/01/07 04:59:01;;;;;;;8.50;5.70;;;;;;;-5.13;69.92;99381.89;107575;1253;66736;-38
2024/01/07 05:01:28;;;;;;;9.90;5.80;;;;;;;-5.15;69.73;99382.56;107554;1254;71690;-38
2024/01/07 05:03:56;;;;;;;7.70;5.00;;;;;;;-5.22;69.54;99382.79;107482;1256;60539;-38
2024/01/07 05:06:23;;;;;;;8.50;5.50;;;;;;;-5.28;69.87;99380.80;107557;1254;60284;-38
2024/01/07 05:08:51;;;;;;;9.60;5.60;;;;;;;-5.33;69.65;99386.04;107579;1254;73810;-38
2024/01/07 05:11:19;;;;;;;10.60;5.40;;;;;;;-5.41;69.47;99390.55;107439;1255;66419;-39
2024/01/07 05:13:46;;;;;;;9.30;5.40;;;;;;;-5.44;70.00;99393.65;107544;1254;70839;-39
2024/01/07 05:16:19;;;;;;;10.20;5.70;;;;;;;-5.37;70.16;99393.59;107636;1253;60272;-39
2024/01/07 05:18:48;;;;;;;10.00;6.00;;;;;;;-5.30;69.78;99397.06;107374;1254;348144;-39
2024/01/07 05:23:36;;;;;;;9.20;5.50;;;;;;;-5.37;69.45;99402.46;104252;1290;600612;-40
2024/01/07 05:26:03;;;;;;;8.70;5.90;;;;;;;-5.42;69.63;99410.30;106697;1266;59081;-39
2024/01/07 05:28:31;;;;;;;7.60;5.60;;;;;;;-5.47;69.76;99411.31;106721;1264;60054;-39
2024/01/07 05:30:58;;;;;;;8.30;5.40;;;;;;;-5.50;69.75;99409.29;106736;1265;72205;-39
2024/01/07 05:33:26;;;;;;;10.10;6.10;;;;;;;-5.58;69.59;99410.08;106691;1266;66587;-39
2024/01/07 05:35:54;;;;;;;7.00;5.10;;;;;;;-5.58;69.57;99412.30;106596;1269;71409;-40
2024/01/07 05:38:21;;;;;;;10.00;5.60;;;;;;;-5.58;69.56;99416.38;106536;1263;300976;-39
2024/01/07 05:40:48;;;;;;;8.40;5.90;;;;;;;-5.57;69.77;99420.39;106010;1263;1003425;-39
2024/01/07 05:43:16;;;;;;;9.20;5.90;;;;;;;-5.60;68.96;99423.75;106738;1263;70979;-39
2024/01/07 05:45:43;;;;;;;9.60;5.70;;;;;;;-5.68;69.21;99425.11;106783;1263;67559;-39
2024/01/07 05:48:11;;;;;;;12.40;6.50;;;;;;;-5.75;69.02;99426.48;106717;1263;70084;-39
2024/01/07 05:50:39;;;;;;;9.20;6.00;;;;;;;-5.80;69.29;99419.83;106745;1264;59632;-39
2024/01/07 05:53:07;;;;;;;10.30;5.50;;;;;;;-5.82;69.29;99418.12;106798;1263;59534;-39
2024/01/07 05:55:35;;;;;;;11.80;5.60;;;;;;;-5.84;69.28;99402.91;106728;1263;73062;-39
2024/01/07 05:58:02;;;;;;;7.70;4.90;;;;;;;-5.76;69.18;99413.47;106515;1260;1003409;-39
2024/01/07 06:00:30;;;;;;;12.60;5.80;;;;;;;-5.82;69.14;99404.30;106548;1257;1003289;-39
2024/01/07 06:02:58;;;;;;;9.20;5.20;;;;;;;-5.86;69.03;99406.27;107283;1260;59628;-39
2024/01/07 06:05:26;;;;;;;8.50;5.30;;;;;;;-5.90;69.00;99409.16;107284;1261;59230;-39
2024/01/07 06:07:53;;;;;;;9.10;5.50;;;;;;;-5.94;68.82;99410.12;107289;1256;72345;-39
2024/01/07 06:10:21;;;;;;;10.80;5.50;;;;;;;-6.01;68.93;99413.70;107290;1256;67551;-39
2024/01/07 06:12:49;;;;;;;9.50;4.80;;;;;;;-6.02;68.91;99416.44;107319;1255;72675;-39
2024/01/07 06:15:17;;;;;;;7.50;5.00;;;;;;;-5.96;68.92;99416.13;107283;1256;60021;-39
2024/01/07 06:17:46;;;;;;;8.10;5.10;;;;;;;-5.95;68.98;99414.77;107290;1256;59964;-39
2024/01/07 06:20:14;;;;;;;10.10;4.90;;;;;;;-5.92;68.47;99414.33;107287;1256;72811;-40
2024/01/07 06:22:42;;;;;;;8.60;4.60;;;;;;;-5.93;67.90;99414.72;107271;1257;67586;-39
2024/01/07 06:25:10;;;;;;;9.80;6.10;;;;;;;-5.95;68.13;99420.35;107235;1257;71150;-40
2024/01/07 06:27:41;;;;;;;11.20;5.10;;;;;;;-5.95;67.89;99418.45;107123;1257;59489;-40
2024/01/07 06:30:09;;;;;;;9.70;5.30;;;;;;;-5.99;67.77;99411.73;107224;1257;59641;-40
2024/01/07 06:32:37;;;;;;;9.00;5.00;;;;;;;-6.04;67.63;99420.80;106486;1255;1003754;-38
2024/01/07 06:35:05;;;;;;;7.20;4.30;;;;;;;-6.07;67.68;99421.88;107253;1257;66316;-38
2024/01/07 06:37:32;;;;;;;8.20;4.50;;;;;;;-6.04;67.03;99421.59;107265;1257;72355;-38
2024/01/07 06:40:00;;;;;;;7.70;5.00;;;;;;;-6.05;67.13;99427.44;106589;1257;1003021;-38
2024/01/07 06:42:27;;;;;;;8.40;4.40;;;;;;;-6.05;67.56;99430.76;106559;1257;1003496;-38
2024/01/07 06:44:55;;;;;;;7.20;4.10;;;;;;;-6.06;67.15;99427.91;107267;1257;73046;-38
2024/01/07 06:47:23;;;;;;;8.80;5.20;;;;;;;-6.10;67.27;99430.13;106515;1257;1002943;-38
2024/01/07 06:49:50;;;;;;;7.10;4.50;;;;;;;-6.09;67.29;99443.17;107262;1258;71707;-38
2024/01/07 06:52:20;;;;;;;7.20;4.20;;;;;;;-6.11;67.13;99444.70;107298;1256;59637;-38
2024/01/07 06:54:48;;;;;;;7.20;4.70;;;;;;;-6.13;67.11;99442.50;106554;1257;1002998;-38
2024/01/07 06:57:15;;;;;;;6.90;4.60;;;;;;;-6.12;66.78;99441.35;107238;1257;73035;-38
2024/01/07 06:59:43;;;;;;;6.40;4.10;;;;;;;-6.02;66.75;99436.14;107225;1257;66768;-38
2024/01/07 07:02:12;;;;;;;6.90;4.20;;;;;;;-5.96;66.68;99438.04;107286;1257;72487;-38
2024/01/07 07:04:39;;;;;;;6.30;4.00;;;;;;;-5.96;65.90;99440.61;107247;1257;59579;-38
2024/01/07 07:07:07;;;;;;;6.70;4.30;;;;;;;-6.01;65.67;99439.73;107178;1261;59749;-39
2024/01/07 07:09:34;;;;;;;7.50;4.00;;;;;;;-6.04;65.95;99444.91;107214;1257;72998;-39
2024/01/07 07:12:03;;;;;;;6.10;4.00;;;;;;;-6.05;65.77;99451.56;107192;1256;67888;-39
2024/01/07 07:14:30;;;;;;;8.20;4.10;;;;;;;-6.08;65.29;99452.21;106456;1257;1003758;-39
2024/01/07 07:16:58;;;;;;;7.00;4.30;;;;;;;-6.13;65.16;99452.27;107256;1256;59713;-40
2024/01/07 07:19:25;;;;;;;6.80;4.30;;;;;;;-6.15;65.54;99457.27;107297;1257;60122;-40
2024/01/07 07:21:53;;;;;;;8.20;4.00;;;;;;;-6.17;65.42;99455.30;107276;1255;71821;-40
2024/01/07 07:24:21;;;;;;;8.10;4.20;;;;;;;-6.19;65.29;99453.27;107305;1256;67918;-39
2024/01/07 07:26:49;;;;;;;5.50;3.90;;;;;;;-6.23;64.70;99450.00;107267;1256;72661;-40
2024/01/07 07:29:17;;;;;;;7.10;3.90;;;;;;;-6.28;64.94;99454.91;107272;1257;59659;-39
2024/01/07 07:31:44;;;;;;;5.50;3.70;;;;;;;-6.23;65.44;99455.48;106521;1256;1003050;-40
2024/01/07 07:34:12;;;;;;;7.30;3.70;;;;;;;-6.20;64.59;99451.94;106476;1256;1003742;-40
2024/01/07 07:36:41;;;;;;;5.70;3.80;;;;;;;-6.18;64.74;99459.82;107311;1256;67576;-40
2024/01/07 07:39:09;;;;;;;6.00;3.30;;;;;;;-6.17;64.98;99461.67;107366;1257;72456;-40
2024/01/07 07:41:36;;;;;;;6.10;3.90;;;;;;;-6.15;64.57;99459.32;107255;1257;60040;-40
2024/01/07 07:44:07;;;;;;;6.80;4.20;;;;;;;-6.13;64.67;99458.34;107198;1257;59622;-40
2024/01/07 07:46:34;;;;;;;8.20;3.90;;;;;;;-6.12;64.10;99454.55;107186;1256;72202;-40
2024/01/07 07:49:02;;;;;;;9.90;3.90;;;;;;;-6.14;64.10;99455.42;106407;1257;1003830;-40
2024/01/07 07:51:30;;;;;;;7.30;3.80;;;;;;;-6.20;63.93;99457.79;106435;1255;1002926;-39
2024/01/07 07:53:57;;;;;;;7.70;4.10;;;;;;;-6.23;64.52;99460.55;107273;1262;59626;-40
2024/01/07 07:56:25;;;;;;;6.40;4.00;;;;;;;-6.24;64.32;99456.69;107282;1257;59531;-40
2024/01/07 07:58:52;;;;;;;7.90;4.00;;;;;;;-6.25;64.42;99452.63;107271;1256;73256;-40
2024/01/07 08:01:20;;;;;;;8.70;4.50;;;;;;;-6.27;64.07;99457.83;107254;1256;66764;-40
2024/01/07 08:03:47;;;;;;;6.10;4.00;;;;;;;-6.32;64.06;99458.19;106471;1256;1003564;-39
2024/01/07 08:06:15;;;;;;;6.90;3.70;;;;;;;-6.30;64.31;99458.32;106498;1257;1003274;-40
2024/01/07 08:08:43;;;;;;;5.50;3.50;;;;;;;-6.15;63.90;99453.84;107260;1257;60005;-40
2024/01/07 08:11:11;;;;;;;5.20;3.00;;;;;;;-6.02;63.74;99453.23;107311;1257;72983;-40
2024/01/07 08:13:39;;;;;;;7.00;4.10;;;;;;;-5.93;63.83;99447.89;106141;1256;1003505;-39
2024/01/07 08:16:07;;;;;;;6.70;4.30;;;;;;;-5.88;64.13;99449.83;107250;1256;72684;-39
2024/01/07 08:18:34;;;;;;;8.00;4.70;;;;;;;-5.83;63.69;99451.96;107194;1256;59638;-40
2024/01/07 08:21:02;;;;;;;7.00;4.10;;;;;;;-5.82;63.35;99450.17;107247;1256;60102;-39
2024/01/07 08:23:30;;;;;;;7.50;4.30;;;;;;;-5.87;62.95;99447.52;107183;1260;72973;-40
2024/01/07 08:25:57;;;;;;;8.10;4.90;;;;;;;-5.87;63.83;99449.77;107232;1257;67929;-40
2024/01/07 08:28:25;;;;;;;8.30;5.20;;;;;;;-5.86;64.09;99451.73;106418;1256;1003608;-40
2024/01/07 08:30:53;;;;;;;8.60;5.10;;;;;;;-5.89;63.98;99451.45;106496;1256;1003769;-40
2024/01/07 08:33:21;;;;;;;7.60;5.30;;;;;;;-5.93;64.05;99451.69;106506;1256;1003047;-40
2024/01/07 08:35:49;;;;;;;9.70;5.70;;;;;;;-5.94;64.19;99452.25;106511;1257;1002951;-40
2024/01/07 08:38:16;;;;;;;11.70;5.80;;;;;;;-5.98;64.34;99461.88;107230;1256;66660;-40
2024/01/07 08:40:44;;;;;;;10.60;6.10;;;;;;;-6.00;64.53;99461.42;107242;1260;71194;-39
2024/01/07 08:43:12;;;;;;;10.60;5.40;;;;;;;-6.00;64.81;99462.08;107251;1256;59646;-40
2024/01/07 08:45:39;;;;;;;10.00;5.30;;;;;;;-5.98;64.90;99463.34;107268;1257;59549;-39
2024/01/07 08:48:07;;;;;;;10.00;5.80;;;;;;;-5.99;64.76;99457.95;107247;1257;73072;-40
2024/01/07 08:50:35;;;;;;;10.40;5.40;;;;;;;-5.98;64.62;99460.66;107234;1257;67595;-40
2024/01/07 08:53:02;;;;;;;8.70;5.20;;;;;;;-5.99;64.33;99456.52;107277;1257;72772;-39
2024/01/07 08:55:32;;;;;;;10.80;6.20;;;;;;;-6.04;64.32;99453.41;107274;1260;60117;-40
2024/01/07 08:58:00;;;;;;;9.50;5.90;;;;;;;-6.09;64.08;99451.37;107172;1257;59634;-40
2024/01/07 09:00:31;;;;;;;9.90;5.60;;;;;;;-6.13;64.39;99451.10;107196;1257;71780;-40
2024/01/07 09:02:59;;;;;;;9.60;5.60;;;;;;;-6.15;64.82;99446.04;107196;1260;67610;-40
2024/01/07 09:05:27;;;;;;;8.50;5.90;;;;;;;-6.04;64.28;99438.16;106474;1257;1003321;-39
2024/01/07 09:07:54;;;;;;;10.20;6.00;;;;;;;-5.97;64.00;99437.09;107202;1261;59686;-40
2024/01/07 09:10:22;;;;;;;9.40;5.70;;;;;;;-5.96;63.84;99442.42;107257;1257;59414;-37
2024/01/07 09:12:49;;;;;;;9.60;5.50;;;;;;;-5.95;63.73;99442.58;106503;1256;1003030;-37
2024/01/07 09:15:18;;;;;;;11.70;6.30;;;;;;;-5.94;63.43;99445.02;107272;1260;66628;-37
2024/01/07 09:17:46;;;;;;;10.90;6.30;;;;;;;-5.97;63.27;99447.79;107240;1257;72963;-40
2024/01/07 09:20:14;;;;;;;12.00;6.80;;;;;;;-6.01;63.27;99447.53;106545;1256;1002818;-40
2024/01/07 09:22:43;;;;;;;11.50;6.40;;;;;;;-6.07;63.32;99445.64;106487;1256;1002805;-40
2024/01/07 09:25:11;;;;;;;9.70;6.20;;;;;;;-6.11;63.33;99447.08;107271;1257;71335;-39
2024/01/07 09:27:39;;;;;;;11.80;6.20;;;;;;;-6.13;63.83;99444.72;107301;1261;67563;-40
2024/01/07 09:30:10;;;;;;;11.40;6.30;;;;;;;-6.16;63.63;99443.17;107235;1256;72525;-40
2024/01/07 09:32:38;;;;;;;12.40;6.50;;;;;;;-6.16;64.16;99440.38;107184;1260;60400;-39
2024/01/07 09:35:06;;;;;;;11.00;6.20;;;;;;;-6.13;64.53;99442.13;107195;1256;60425;-40
2024/01/07 09:37:35;;;;;;;11.40;6.10;;;;;;;-6.14;63.87;99441.86;106417;1257;1002509;-39
2024/01/07 09:40:06;;;;;;;13.20;7.10;;;;;;;-6.18;63.44;99444.25;106456;1260;1003456;-39
2024/01/07 09:42:34;;;;;;;11.50;6.80;;;;;;;-6.22;63.86;99438.04;107352;1257;72666;-40
2024/01/07 09:45:03;;;;;;;12.40;6.70;;;;;;;-6.22;64.09;99439.02;107272;1258;60444;-40
2024/01/07 09:47:31;;;;;;;12.30;6.60;;;;;;;-6.19;64.51;99430.21;106585;1258;1003471;-40
2024/01/07 09:49:59;;;;;;;12.40;6.70;;;;;;;-6.11;64.16;99425.95;107294;1257;73832;-39
2024/01/07 09:52:26;;;;;;;9.60;5.70;;;;;;;-6.01;63.71;99430.22;106555;1258;1003396;-40
2024/01/07 09:54:59;;;;;;;13.70;6.80;;;;;;;-5.94;63.35;99435.62;107255;1256;73181;-39
2024/01/07 09:57:26;;;;;;;9.50;5.60;;;;;;;-5.90;63.71;99444.79;107277;1260;60264;-39
2024/01/07 09:59:54;;;;;;;13.50;6.90;;;;;;;-5.79;63.78;99444.92;107279;1257;60322;-39
2024/01/07 10:02:23;;;;;;;12.60;7.00;;;;;;;-5.71;63.52;99444.89;107276;1257;72521;-39
2024/01/07 10:04:51;;;;;;;11.60;6.60;;;;;;;-5.64;62.98;99438.45;107296;1256;67592;-38
2024/01/07 10:07:18;;;;;;;13.20;7.40;;;;;;;-5.62;62.63;99438.23;107258;1256;72418;-40
2024/01/07 10:09:46;;;;;;;10.50;6.70;;;;;;;-5.64;62.16;99438.06;106561;1257;1002824;-39
2024/01/07 10:12:14;;;;;;;12.70;6.40;;;;;;;-5.71;61.90;99440.91;107282;1257;59285;-39
2024/01/07 10:14:41;;;;;;;9.70;6.10;;;;;;;-5.82;61.46;99440.35;106996;1260;73871;-39
2024/01/07 10:17:15;;;;;;;10.60;6.40;;;;;;;-5.93;61.64;99439.07;107199;1257;68065;-39
2024/01/07 10:19:46;;;;;;;11.20;6.90;;;;;;;-5.99;62.19;99433.29;107228;1256;71588;-39
2024/01/07 10:22:14;;;;;;;9.80;6.40;;;;;;;-6.02;62.32;99432.27;107240;1258;60442;-39
2024/01/07 10:24:43;;;;;;;11.80;6.50;;;;;;;-6.06;62.30;99432.08;107334;1257;60454;-40
2024/01/07 10:27:11;;;;;;;8.40;5.20;;;;;;;-6.06;62.49;99431.60;107261;1256;73928;-39
2024/01/07 10:29:39;;;;;;;13.30;6.70;;;;;;;-6.04;63.00;99424.59;107281;1260;68367;-39
2024/01/07 10:32:06;;;;;;;10.80;6.20;;;;;;;-6.00;63.00;99423.33;107266;1257;72466;-39
2024/01/07 10:34:35;;;;;;;14.50;6.90;;;;;;;-5.95;62.50;99422.58;107236;1256;60422;-39
2024/01/07 10:37:08;;;;;;;10.00;6.20;;;;;;;-5.97;62.02;99415.16;106534;1262;1003483;-40
2024/01/07 10:39:36;;;;;;;8.80;5.70;;;;;;;-6.06;61.83;99420.99;107246;1257;73826;-39
2024/01/07 10:42:04;;;;;;;11.50;6.60;;;;;;;-6.11;62.44;99419.46;107263;1261;66326;-39
2024/01/07 10:44:32;;;;;;;11.90;7.00;;;;;;;-6.12;62.43;99420.25;106515;1257;1002846;-39
2024/01/07 10:47:00;;;;;;;11.30;6.40;;;;;;;-6.10;62.57;99420.00;107248;1260;60329;-40
2024/01/07 10:49:28;;;;;;;12.30;6.60;;;;;;;-6.06;62.48;99425.00;107228;1257;60466;-39
2024/01/07 10:52:04;;;;;;;12.00;6.90;;;;;;;-6.06;62.26;99421.69;107354;1257;72596;-39
2024/01/07 10:54:33;;;;;;;10.00;6.70;;;;;;;-6.07;61.94;99423.20;107232;1257;68996;-39
2024/01/07 10:57:09;;;;;;;8.60;5.30;;;;;;;-6.10;62.03;99421.38;107236;1260;70587;-40
2024/01/07 10:59:37;;;;;;;13.70;7.50;;;;;;;-6.10;61.82;99420.48;107256;1256;60448;-40
2024/01/07 11:02:05;;;;;;;11.80;6.20;;;;;;;-6.11;61.98;99416.99;107239;1261;60393;-39
2024/01/07 11:04:41;;;;;;;12.40;7.40;;;;;;;-6.10;62.10;99414.95;107164;1260;76048;-39
2024/01/07 11:07:28;;;;;;;10.90;6.60;;;;;;;-6.08;61.57;99415.22;107190;1260;67687;-39
2024/01/07 11:10:04;;;;;;;11.10;6.80;;;;;;;-6.09;61.81;99414.30;105770;1260;1003808;-40
2024/01/07 11:12:32;;;;;;;11.70;6.70;;;;;;;-6.08;61.82;99413.01;107182;1257;60438;-39
2024/01/07 11:15:00;;;;;;;12.20;6.90;;;;;;;-6.07;61.80;99414.39;107294;1257;60623;-39
2024/01/07 11:17:37;;;;;;;11.80;7.00;;;;;;;-6.07;61.81;99408.64;107235;1260;73784;-39
2024/01/07 11:20:06;;;;;;;13.30;6.90;;;;;;;-6.08;61.69;99402.82;107244;1260;67558;-39
2024/01/07 11:22:35;;;;;;;15.60;6.70;;;;;;;-6.09;61.69;99400.05;107322;1259;72778;-40
2024/01/07 11:25:20;;;;;;;12.40;7.40;;;;;;;-6.12;61.02;99398.98;107281;1258;60447;-39